Time;durP1;ratioP1;P1;durP2;ratioP2;P2;SDS_P1;SDS_P2;PMS_P1;PMS_P2;Temp;Humidity;BMP_temperature;BMP_pressure;BME280_temperature;BME280_humidity;BME280_pressure;Samples;Min_cycle;Max_cycle;Signal;HPM_P1;HPM_P2
2022/12/26 00:02:04;;;;;;;18.03;9.40;;;8.50;99.90;;;6.19;100.00;100647.00;10536221;28;20056;-92
2022/12/26 00:07:07;;;;;;;19.63;10.20;;;8.50;99.90;;;6.11;100.00;100642.34;10547387;28;20581;-94
2022/12/26 00:12:10;;;;;;;20.03;10.43;;;8.40;99.90;;;6.08;100.00;100639.97;10571748;28;20056;-91
2022/12/26 00:17:13;;;;;;;18.63;10.80;;;8.40;99.90;;;6.07;100.00;100637.47;10561701;28;20064;-91
2022/12/26 00:22:17;;;;;;;18.90;9.50;;;8.30;99.90;;;6.07;100.00;100626.91;10549783;27;20056;-91
2022/12/26 00:27:21;;;;;;;16.63;9.60;;;8.40;99.90;;;6.06;100.00;100617.31;10543489;28;20052;-91
2022/12/26 00:32:24;;;;;;;15.70;9.07;;;8.40;99.90;;;6.04;100.00;100617.44;10550462;28;20083;-92
2022/12/26 00:37:26;;;;;;;21.27;10.10;;;8.30;99.90;;;5.96;100.00;100627.81;10563029;28;20053;-94
2022/12/26 00:42:29;;;;;;;22.03;11.67;;;8.30;99.90;;;5.83;100.00;100650.84;10554912;28;20060;-88
2022/12/26 00:47:32;;;;;;;19.27;10.13;;;8.20;99.90;;;5.71;100.00;100659.78;10541730;28;20063;-88
2022/12/26 00:52:35;;;;;;;19.87;10.57;;;8.00;99.90;;;5.63;100.00;100644.56;10533736;28;20060;-92
2022/12/26 00:57:38;;;;;;;19.77;9.00;;;7.90;99.90;;;5.58;100.00;100647.59;10540095;28;20063;-91
2022/12/26 01:02:41;;;;;;;17.50;9.43;;;7.90;99.90;;;5.52;100.00;100626.16;10550985;28;20109;-91
2022/12/26 01:07:44;;;;;;;18.53;10.27;;;7.80;99.90;;;5.43;100.00;100604.00;10579052;28;20099;-93
2022/12/26 01:13:08;;;;;;;24.43;12.10;;;7.70;99.90;;;5.29;100.00;100626.22;10549612;28;20065;-89
2022/12/26 01:18:11;;;;;;;15.00;8.40;;;7.60;99.90;;;5.24;100.00;100627.56;10540782;28;20086;-89
2022/12/26 01:23:14;;;;;;;25.03;11.30;;;7.60;99.90;;;5.16;100.00;100622.03;10563176;28;20052;-91
2022/12/26 01:28:18;;;;;;;23.77;12.30;;;7.50;99.90;;;5.10;100.00;100636.56;10566296;28;20068;-90
2022/12/26 01:33:21;;;;;;;24.43;11.90;;;7.40;99.90;;;5.03;100.00;100619.53;10561163;28;20052;-91
2022/12/26 01:38:24;;;;;;;26.57;11.77;;;7.30;99.90;;;5.00;100.00;100628.53;10524985;28;20063;-89
2022/12/26 01:43:47;;;;;;;23.87;11.07;;;7.30;99.90;;;5.01;100.00;100616.22;10569517;28;20163;-89
2022/12/26 01:48:51;;;;;;;23.30;11.17;;;7.30;99.90;;;4.98;100.00;100605.94;10543170;28;20415;-90
2022/12/26 01:53:58;;;;;;;18.50;10.30;;;7.30;99.90;;;4.95;100.00;100603.53;10511448;28;20071;-89
2022/12/26 01:59:27;;;;;;;21.80;10.20;;;7.30;99.90;;;4.91;100.00;100605.56;10540479;28;20064;-88
2022/12/26 02:10:00;;;;;;;23.47;10.73;;;7.20;99.90;;;4.77;100.00;100598.75;10560380;28;20087;-90
2022/12/26 02:15:12;;;;;;;25.17;12.37;;;7.10;99.90;;;4.74;100.00;100601.66;10542250;28;20059;-89
2022/12/26 02:20:52;;;;;;;23.83;11.17;;;7.10;99.90;;;4.69;100.00;100610.84;10530681;28;20535;-90
2022/12/26 02:26:28;;;;;;;22.80;11.17;;;7.00;99.90;;;4.62;100.00;100591.22;10526897;28;20067;-91
2022/12/26 02:32:01;;;;;;;34.77;14.90;;;6.90;99.90;;;4.53;100.00;100554.13;10530524;28;20115;-90
2022/12/26 02:37:40;;;;;;;34.57;15.53;;;6.80;99.90;;;4.42;100.00;100548.88;10543246;28;20112;-90
2022/12/26 02:43:24;;;;;;;34.27;15.47;;;6.70;99.90;;;4.29;100.00;100570.03;10530241;28;20084;-91
2022/12/26 02:48:49;;;;;;;26.00;13.20;;;6.60;99.90;;;4.17;100.00;100570.16;10547284;28;20065;-92
2022/12/26 03:21:52;;;;;;;31.07;13.27;;;6.40;99.90;;;4.08;100.00;100574.34;10531489;28;19927;-91
2022/12/26 03:26:55;;;;;;;34.53;14.57;;;6.40;99.90;;;4.06;100.00;100591.16;10535330;28;20060;-91
2022/12/26 03:32:00;;;;;;;37.50;15.00;;;6.40;99.90;;;4.10;100.00;100576.84;10530307;28;20091;-91
2022/12/26 03:37:35;;;;;;;27.97;12.57;;;6.40;99.90;;;4.13;100.00;100585.31;10512667;28;20064;-92
2022/12/26 04:54:36;;;;;;;36.77;14.17;;;6.60;99.90;;;4.27;100.00;100579.03;10540076;28;20052;-88
2022/12/26 04:59:39;;;;;;;32.03;13.90;;;6.60;99.90;;;4.25;100.00;100575.66;10553885;28;20134;-88
2022/12/26 05:10:07;;;;;;;28.42;11.48;;;6.50;99.90;;;4.23;100.00;100573.16;10553603;28;20563;-88
2022/12/26 05:15:11;;;;;;;21.77;10.50;;;6.50;99.90;;;4.24;100.00;100581.88;10514189;28;20515;-88
2022/12/26 05:31:02;;;;;;;27.13;10.50;;;6.60;99.90;;;4.27;100.00;100553.53;10551293;28;20052;-89
2022/12/26 05:36:06;;;;;;;37.47;15.77;;;6.60;99.90;;;4.26;100.00;100564.19;10560893;28;20643;-91
2022/12/26 05:41:09;;;;;;;38.03;12.87;;;6.60;99.90;;;4.24;100.00;100563.47;10528610;28;20073;-89
2022/12/26 05:46:12;;;;;;;40.63;13.73;;;6.60;99.90;;;4.26;100.00;100562.41;10519027;28;20155;-89
2022/12/26 05:51:15;;;;;;;36.17;13.57;;;6.60;99.90;;;4.28;100.00;100559.63;10525760;28;20146;-89
2022/12/26 05:56:19;;;;;;;30.83;11.90;;;6.60;99.90;;;4.28;100.00;100549.13;10540213;28;20401;-89
2022/12/26 06:01:25;;;;;;;37.20;13.40;;;6.60;99.90;;;4.32;100.00;100561.09;10533301;28;20636;-90
2022/12/26 06:06:28;;;;;;;37.07;15.40;;;6.60;99.90;;;4.33;100.00;100559.28;10521276;28;20059;-91
2022/12/26 06:11:31;;;;;;;38.50;15.50;;;6.60;99.90;;;4.34;100.00;100559.16;10546413;28;20052;-90
2022/12/26 06:16:34;;;;;;;36.17;15.67;;;6.70;99.90;;;4.36;100.00;100559.88;10504109;28;20056;-93
2022/12/26 06:21:37;;;;;;;43.87;19.37;;;6.70;99.90;;;4.34;100.00;100553.91;10551475;28;20060;-89
2022/12/26 06:26:40;;;;;;;34.50;14.30;;;6.70;99.90;;;4.33;100.00;100544.34;10549095;28;20105;-90
2022/12/26 06:31:43;;;;;;;30.60;13.57;;;6.70;99.90;;;4.37;100.00;100542.28;10538448;28;20143;-90
2022/12/26 06:36:46;;;;;;;34.87;14.17;;;6.70;99.90;;;4.36;100.00;100549.34;10549403;28;20133;-89
2022/12/26 06:41:50;;;;;;;25.33;11.23;;;6.70;99.90;;;4.37;100.00;100540.50;10569612;28;20075;-95
2022/12/26 06:46:53;;;;;;;41.20;13.40;;;6.70;99.90;;;4.39;100.00;100535.97;10529530;28;20056;-92
2022/12/26 06:51:56;;;;;;;27.30;11.00;;;6.70;99.90;;;4.42;100.00;100551.50;10528728;28;20083;-93
2022/12/26 06:56:59;;;;;;;34.10;13.63;;;6.70;99.90;;;4.42;100.00;100554.13;10565810;28;20055;-94
2022/12/26 07:02:02;;;;;;;32.10;13.40;;;6.70;99.90;;;4.44;100.00;100554.03;10530718;28;20067;-90
2022/12/26 07:07:07;;;;;;;33.47;12.17;;;6.70;99.90;;;4.46;100.00;100558.22;10542116;28;20427;-92
2022/12/26 07:12:10;;;;;;;30.37;12.03;;;6.80;99.90;;;4.48;100.00;100561.56;10522621;28;20057;-90
2022/12/26 07:17:13;;;;;;;31.07;13.17;;;6.80;99.90;;;4.52;100.00;100572.69;10503016;28;20139;-87
2022/12/26 07:22:16;;;;;;;44.60;14.70;;;6.80;99.90;;;4.57;100.00;100575.81;10508533;28;20164;-87
2022/12/26 07:27:19;;;;;;;35.20;14.00;;;6.80;99.90;;;4.63;100.00;100580.59;10506786;28;20551;-86
2022/12/26 07:32:22;;;;;;;46.33;16.03;;;6.90;99.90;;;4.69;100.00;100589.78;10528807;28;20109;-89
2022/12/26 07:37:25;;;;;;;29.17;13.20;;;7.00;99.90;;;4.74;100.00;100592.91;10534605;28;20062;-88
2022/12/26 07:42:28;;;;;;;31.77;12.17;;;7.00;99.90;;;4.76;100.00;100583.09;10548772;28;20063;-88
2022/12/26 07:47:32;;;;;;;27.60;13.90;;;7.10;99.90;;;4.81;100.00;100568.59;10484186;28;20061;-88
2022/12/26 07:52:35;;;;;;;28.13;14.50;;;7.10;99.90;;;4.91;100.00;100573.94;10496287;28;20532;-92
2022/12/26 07:57:38;;;;;;;27.47;13.10;;;7.20;99.90;;;4.97;100.00;100573.47;10474990;28;20082;-93
2022/12/26 08:02:52;;;;;;;25.90;10.83;;;7.30;99.90;;;5.05;100.00;100575.50;10498327;28;20481;-91
2022/12/26 08:07:55;;;;;;;30.97;13.73;;;7.30;99.90;;;5.09;100.00;100590.09;10485380;28;20148;-95
2022/12/26 08:13:01;;;;;;;29.77;12.07;;;7.40;99.90;;;5.11;100.00;100596.09;10513159;28;20092;-95
2022/12/26 08:18:06;;;;;;;29.17;12.97;;;7.40;99.90;;;5.15;100.00;100601.94;10495473;28;20053;-93
2022/12/26 08:23:09;;;;;;;25.83;11.77;;;7.40;99.90;;;5.14;100.00;100605.53;10524854;28;20088;-91
2022/12/26 08:28:13;;;;;;;26.77;11.97;;;7.40;99.90;;;5.20;100.00;100610.31;10517521;28;20060;-94
2022/12/26 08:33:16;;;;;;;30.93;12.10;;;7.50;99.90;;;5.24;100.00;100611.75;10507096;28;20076;-87
2022/12/26 08:38:19;;;;;;;40.07;15.73;;;7.60;99.90;;;5.30;100.00;100627.88;10484912;28;20053;-86
2022/12/26 08:43:23;;;;;;;30.10;15.20;;;7.60;99.90;;;5.37;100.00;100609.78;10487267;28;20056;-86
2022/12/26 08:48:47;;;;;;;35.20;15.70;;;7.70;99.90;;;5.39;100.00;100610.47;10474992;28;20108;-96
2022/12/26 08:53:53;;;;;;;35.60;15.13;;;7.70;99.90;;;5.47;100.00;100621.25;10477678;28;20179;-85
2022/12/26 08:58:57;;;;;;;32.43;13.03;;;7.70;99.90;;;5.50;100.00;100623.63;10491121;28;20057;-85
2022/12/26 09:04:02;;;;;;;29.77;13.20;;;7.80;99.90;;;5.63;100.00;100634.84;10478495;28;20079;-80
2022/12/26 09:09:10;;;;;;;31.70;13.63;;;7.90;99.90;;;5.71;100.00;100614.94;10531379;28;20080;-82
2022/12/26 09:14:13;;;;;;;34.77;13.73;;;8.00;99.90;;;5.77;100.00;100619.72;10513997;28;20056;-83
2022/12/26 09:19:17;;;;;;;39.27;15.37;;;8.00;99.90;;;5.83;100.00;100614.78;10512777;28;20139;-82
2022/12/26 09:24:20;;;;;;;39.63;14.27;;;8.10;99.90;;;5.85;100.00;100612.00;10495210;28;20402;-83
2022/12/26 09:29:23;;;;;;;37.77;13.90;;;8.10;99.90;;;5.96;100.00;100621.69;10473678;28;20056;-83
2022/12/26 09:34:26;;;;;;;39.63;15.37;;;8.20;99.90;;;6.04;100.00;100630.63;10499841;28;20060;-82
2022/12/26 09:39:29;;;;;;;38.43;14.03;;;8.30;99.90;;;6.15;100.00;100633.22;10527740;28;20063;-82
2022/12/26 09:45:15;;;;;;;39.00;14.40;;;8.40;99.90;;;6.22;100.00;100622.13;10512257;28;20064;-82
2022/12/26 09:50:34;;;;;;;41.13;12.83;;;8.50;99.90;;;6.27;100.00;100630.50;10543706;28;20067;-82
2022/12/26 09:56:14;;;;;;;38.53;13.43;;;8.50;99.90;;;6.34;100.00;100619.28;10549068;28;20153;-83
2022/12/26 10:01:38;;;;;;;;;;;8.60;99.90;;;6.49;100.00;100622.44;10543869;28;20082;-82
2022/12/26 10:07:01;;;;;;;39.33;13.37;;;8.70;99.90;;;6.56;100.00;100628.88;10542817;28;19928;-83
2022/12/26 10:12:05;;;;;;;41.43;13.83;;;8.70;99.90;;;6.66;100.00;100624.47;10518868;28;20075;-82
2022/12/26 10:17:35;;;;;;;40.37;13.13;;;8.80;99.90;;;6.76;100.00;100607.81;10552912;28;20079;-82
2022/12/26 10:22:53;;;;;;;42.67;13.97;;;9.00;99.90;;;6.84;100.00;100605.38;10552250;28;20059;-82
2022/12/26 10:27:57;;;;;;;38.33;13.27;;;9.00;99.90;;;6.89;100.00;100595.19;10536791;28;20139;-82
2022/12/26 10:33:10;;;;;;;44.33;15.40;;;9.10;99.90;;;6.95;100.00;100579.66;10569037;28;20511;-82
2022/12/26 10:38:38;;;;;;;35.47;14.57;;;9.20;99.90;;;7.00;100.00;100573.97;10536685;28;20140;-82
2022/12/26 10:43:43;;;;;;;35.90;14.30;;;9.30;99.90;;;6.99;100.00;100564.38;10565740;28;20111;-82
2022/12/26 10:48:47;;;;;;;40.60;15.77;;;9.30;99.90;;;6.91;100.00;100557.13;10561479;28;20067;-82
2022/12/26 10:53:52;;;;;;;47.57;16.37;;;9.20;99.90;;;6.89;100.00;100550.28;10544866;28;20063;-82
2022/12/26 10:59:02;;;;;;;36.97;14.67;;;9.20;99.90;;;6.89;100.00;100566.16;10546426;28;20056;-82
2022/12/26 11:04:26;;;;;;;42.50;16.23;;;9.20;99.90;;;6.86;100.00;100548.78;10553196;28;20137;-82
2022/12/26 11:09:54;;;;;;;39.63;14.17;;;9.10;99.90;;;6.86;100.00;100545.28;10562308;28;20056;-82
2022/12/26 11:15:05;;;;;;;36.97;15.07;;;9.10;99.90;;;6.92;100.00;100539.47;10519706;28;20063;-82
2022/12/26 11:20:26;;;;;;;37.83;14.15;;;9.10;99.90;;;7.06;100.00;100532.94;10551562;27;20095;-82
2022/12/26 11:25:33;;;;;;;27.97;12.43;;;9.20;99.90;;;7.15;100.00;100517.13;10517800;28;20094;-85
2022/12/26 11:30:39;;;;;;;39.87;14.60;;;9.40;99.90;;;7.18;100.00;100514.19;10547898;28;20062;-82
2022/12/26 11:36:10;;;;;;;35.73;14.70;;;9.50;99.90;;;7.18;100.00;100508.91;10534754;28;20577;-82
2022/12/26 11:41:31;;;;;;;35.30;14.27;;;9.50;99.90;;;7.21;100.00;100526.31;10542246;28;20092;-82
2022/12/26 11:46:52;;;;;;;37.17;14.73;;;9.50;99.90;;;7.21;100.00;100524.50;10556451;28;20060;-82
2022/12/26 11:51:57;;;;;;;35.20;14.47;;;9.40;99.90;;;7.19;100.00;100515.84;10551503;28;20056;-82
2022/12/26 11:57:26;;;;;;;38.13;13.53;;;9.40;99.90;;;7.19;100.00;100505.28;10536657;28;20060;-82
2022/12/26 12:02:31;;;;;;;38.60;14.30;;;9.40;99.90;;;7.22;100.00;100502.38;10544701;28;20110;-82
2022/12/26 12:07:42;;;;;;;26.17;12.77;;;9.50;99.90;;;7.30;100.00;100498.19;10549236;28;20106;-82
2022/12/26 12:13:33;;;;;;;33.17;12.07;;;9.50;99.90;;;7.33;100.00;100495.28;10567654;28;20138;-82
2022/12/26 12:19:27;;;;;;;28.90;12.00;;;9.60;99.90;;;7.29;100.00;100492.06;10560211;28;20139;-83
2022/12/26 12:25:34;;;;;;;36.00;14.90;;;9.60;99.90;;;7.34;100.00;100507.53;10535867;28;20060;-82
2022/12/26 12:31:45;;;;;;;36.97;15.90;;;9.60;99.90;;;7.25;100.00;100504.72;10506620;28;20158;-83
2022/12/26 12:37:35;;;;;;;33.57;14.93;;;9.50;99.90;;;7.15;100.00;100495.13;10488534;28;20515;-82
2022/12/26 12:43:14;;;;;;;39.17;14.30;;;9.40;99.90;;;7.05;100.00;100487.19;10506966;28;20508;-82
2022/12/26 12:48:46;;;;;;;36.57;13.13;;;9.30;99.90;;;7.00;100.00;100492.06;10540311;28;20064;-82
2022/12/26 12:54:11;;;;;;;37.10;13.68;;;9.30;99.90;;;6.98;100.00;100500.13;10551618;28;20135;-82
2022/12/26 12:59:46;;;;;;;34.33;13.40;;;9.20;99.90;;;6.95;100.00;100486.34;10539486;28;20114;-82
2022/12/26 13:05:05;;;;;;;40.63;13.20;;;9.20;99.90;;;6.90;100.00;100489.41;10578165;28;20109;-82
2022/12/26 13:10:39;;;;;;;38.43;13.73;;;9.10;99.90;;;6.86;100.00;100492.47;10548339;28;20098;-83
2022/12/26 13:15:48;;;;;;;31.03;12.47;;;9.10;99.90;;;6.86;100.00;100488.00;10542340;28;20063;-82
2022/12/26 13:21:09;;;;;;;38.40;13.90;;;9.10;99.90;;;6.82;100.00;100478.69;10545268;28;20060;-83
2022/12/26 13:26:25;;;;;;;37.23;14.33;;;9.00;99.90;;;6.82;100.00;100485.78;10565139;28;20060;-83
2022/12/26 13:31:35;;;;;;;36.30;13.23;;;9.00;99.90;;;6.84;100.00;100497.06;10548589;28;20064;-83
2022/12/26 13:36:48;;;;;;;35.87;15.27;;;9.00;99.90;;;6.83;100.00;100503.28;10537284;28;20063;-84
2022/12/26 13:47:37;;;;;;;36.35;12.93;;;9.00;99.90;;;6.79;100.00;100501.91;10547324;28;20088;-84
2022/12/26 13:52:41;;;;;;;35.93;13.87;;;9.00;99.90;;;6.77;100.00;100494.09;10515757;28;20064;-83
2022/12/26 13:57:44;;;;;;;31.40;11.73;;;9.00;99.90;;;6.78;100.00;100500.22;10509969;28;20110;-83
2022/12/26 14:03:14;;;;;;;38.87;13.87;;;9.00;99.90;;;6.75;100.00;100506.63;10523879;28;20056;-82
2022/12/26 14:08:32;;;;;;;34.57;14.33;;;9.00;99.90;;;6.72;100.00;100504.25;10562696;28;20106;-83
2022/12/26 14:14:02;;;;;;;46.23;15.97;;;8.90;99.90;;;6.69;100.00;100497.44;10531622;28;20503;-83
2022/12/26 14:19:33;;;;;;;36.90;14.07;;;8.90;99.90;;;6.63;100.00;100508.53;10545377;28;20142;-83
2022/12/26 14:24:51;;;;;;;40.63;13.33;;;8.80;99.90;;;6.57;100.00;100517.00;10548893;28;20088;-83
2022/12/26 14:30:49;;;;;;;38.07;13.13;;;8.80;99.90;;;6.52;100.00;100507.81;10533880;28;20063;-83
2022/12/26 14:36:51;;;;;;;39.50;12.63;;;8.70;99.90;;;6.43;100.00;100512.09;10538862;28;20492;-83
2022/12/26 14:47:48;;;;;;;42.20;14.70;;;8.60;99.90;;;6.30;100.00;100525.53;10531220;27;20056;-88
2022/12/26 14:52:51;;;;;;;46.03;16.87;;;8.50;99.90;;;6.17;100.00;100517.78;10514469;28;20060;-87
2022/12/26 14:57:55;;;;;;;38.07;14.63;;;8.40;99.90;;;6.08;100.00;100510.69;10536997;27;20065;-88
2022/12/26 15:02:57;;;;;;;42.30;15.83;;;8.30;99.90;;;5.99;100.00;100506.19;10522590;28;20088;-87
2022/12/26 15:08:49;;;;;;;55.03;19.27;;;8.20;99.90;;;5.83;100.00;100500.53;10544558;28;20063;-87
2022/12/26 15:14:35;;;;;;;41.83;15.80;;;8.10;99.90;;;5.75;100.00;100495.88;10528638;28;20171;-87
2022/12/26 15:20:03;;;;;;;48.40;16.63;;;8.00;99.90;;;5.64;100.00;100502.06;10531849;28;20416;-88
2022/12/26 15:25:40;;;;;;;53.90;19.07;;;7.90;99.90;;;5.55;100.00;100487.03;10534994;28;20061;-88
2022/12/26 15:31:06;;;;;;;52.47;18.07;;;7.80;99.90;;;5.47;100.00;100476.28;10518857;28;20595;-88
2022/12/26 15:36:39;;;;;;;51.90;18.07;;;7.70;99.90;;;5.40;100.00;100480.41;10559580;28;20060;-91
2022/12/26 15:42:06;;;;;;;51.73;17.90;;;7.70;99.90;;;5.33;100.00;100481.84;10554770;28;20059;-91
2022/12/26 15:47:24;;;;;;;54.03;18.63;;;7.60;99.90;;;5.24;100.00;100487.91;10493815;28;20060;-89
2022/12/26 15:52:54;;;;;;;67.53;20.10;;;7.50;99.90;;;5.19;100.00;100483.00;10494435;28;20059;-88
2022/12/26 15:58:28;;;;;;;52.73;18.60;;;7.40;99.90;;;5.13;100.00;100474.78;10488322;28;20083;-86
2022/12/26 16:03:59;;;;;;;58.47;17.83;;;7.40;99.90;;;5.04;100.00;100489.53;10498596;28;20142;-85
2022/12/26 16:09:37;;;;;;;47.13;16.45;;;7.30;99.90;;;4.93;100.00;100482.50;10524605;28;20139;-82
2022/12/26 16:14:43;;;;;;;51.07;16.57;;;7.20;99.90;;;4.80;100.00;100474.78;10526881;28;20091;-85
2022/12/26 16:19:51;;;;;;;33.57;13.63;;;7.10;99.90;;;4.67;100.00;100470.59;10492347;28;20155;-86
2022/12/26 16:24:54;;;;;;;37.03;14.97;;;6.90;99.90;;;4.54;100.00;100476.00;10495687;28;20063;-85
2022/12/26 16:30:04;;;;;;;44.03;16.37;;;6.80;99.90;;;4.38;100.00;100467.66;10500483;28;20110;-85
2022/12/26 16:35:28;;;;;;;34.73;13.47;;;6.70;99.90;;;4.25;100.00;100465.16;10504177;28;20061;-81
2022/12/26 16:40:41;;;;;;;35.77;13.80;;;6.60;99.90;;;4.16;100.00;100460.63;10492200;28;20053;-89
2022/12/26 16:46:02;;;;;;;36.30;14.83;;;6.40;99.90;;;4.07;100.00;100464.81;10494320;28;20409;-82
2022/12/26 16:51:58;;;;;;;47.57;17.57;;;6.40;99.90;;;4.02;100.00;100474.88;10540115;28;20511;-83
2022/12/26 16:57:35;;;;;;;85.50;30.53;;;6.30;99.90;;;3.94;100.00;100483.34;10525763;28;20060;-84
2022/12/26 17:02:50;;;;;;;39.03;15.60;;;6.20;99.90;;;3.82;100.00;100475.56;10526013;28;20057;-82
2022/12/26 17:07:56;;;;;;;54.00;25.03;;;6.10;99.90;;;3.71;100.00;100486.88;10568022;28;20144;-83
2022/12/26 17:13:03;;;;;;;49.77;19.07;;;6.10;99.90;;;3.62;100.00;100487.59;10553397;28;20056;-83
2022/12/26 17:18:53;;;;;;;68.63;21.03;;;5.90;99.90;;;3.61;100.00;100481.50;10513769;28;20060;-82
2022/12/26 17:24:24;;;;;;;88.90;22.20;;;5.90;99.90;;;3.69;100.00;100478.28;10429077;28;20080;-83
2022/12/26 17:29:48;;;;;;;75.00;21.13;;;6.00;99.90;;;3.78;100.00;100471.47;10536492;28;20106;-83
2022/12/26 17:34:51;;;;;;;87.13;20.07;;;6.10;99.90;;;3.92;100.00;100463.38;10540668;28;20062;-83
2022/12/26 17:40:34;;;;;;;62.07;18.90;;;6.20;99.90;;;4.04;100.00;100454.53;10573361;28;20565;-83
2022/12/26 17:45:40;;;;;;;77.40;22.30;;;6.30;99.90;;;4.16;100.00;100455.38;10533007;28;20071;-83
2022/12/26 17:51:01;;;;;;;82.63;22.60;;;6.40;99.90;;;4.26;100.00;100451.91;10516275;28;20086;-83
2022/12/26 17:56:23;;;;;;;94.70;23.67;;;6.50;99.90;;;4.33;100.00;100454.06;10528934;28;20065;-83
2022/12/26 18:01:26;;;;;;;113.78;22.83;;;6.60;99.90;;;4.41;100.00;100452.47;10546925;28;20497;-82
2022/12/26 18:06:29;;;;;;;103.97;24.43;;;6.60;99.90;;;4.49;100.00;100460.59;10541398;28;20504;-82
2022/12/26 18:11:32;;;;;;;75.77;17.73;;;6.70;99.90;;;4.56;100.00;100442.53;10549860;28;20118;-82
2022/12/26 18:16:35;;;;;;;99.60;19.43;;;6.80;99.90;;;4.60;100.00;100437.84;10549977;28;20062;-83
2022/12/26 18:21:38;;;;;;;80.87;20.17;;;6.80;99.90;;;4.61;100.00;100423.72;10543565;28;20088;-82
2022/12/26 18:26:41;;;;;;;64.27;18.67;;;6.90;99.90;;;4.52;100.00;100415.63;10537586;28;20063;-82
2022/12/26 18:31:44;;;;;;;73.73;18.60;;;6.80;99.90;;;4.44;100.00;100418.03;10524162;28;20058;-82
2022/12/26 18:36:47;;;;;;;88.40;20.13;;;6.70;99.90;;;4.46;100.00;100420.53;10530974;28;20064;-82
2022/12/26 18:41:50;;;;;;;68.00;18.23;;;6.70;99.90;;;4.41;100.00;100397.22;10533641;28;20059;-83
2022/12/26 18:46:53;;;;;;;77.20;20.37;;;6.70;99.90;;;4.41;100.00;100399.84;10494532;28;20065;-82
2022/12/26 18:51:56;;;;;;;80.70;18.70;;;6.70;99.90;;;4.38;100.00;100409.78;10463679;28;20194;-82
2022/12/26 18:56:59;;;;;;;82.13;20.23;;;6.60;99.90;;;4.34;100.00;100396.03;10503298;28;20151;-82
2022/12/26 19:02:02;;;;;;;64.50;17.10;;;6.60;99.90;;;4.33;100.00;100389.13;10472517;28;20567;-83
2022/12/26 19:07:05;;;;;;;76.53;17.57;;;6.60;99.90;;;4.29;100.00;100393.78;10497537;28;20071;-83
2022/12/26 19:12:08;;;;;;;84.53;16.60;;;6.60;99.90;;;4.30;100.00;100405.13;10484581;28;20126;-83
2022/12/26 19:17:11;;;;;;;60.10;14.60;;;6.60;99.90;;;4.32;100.00;100413.75;10474970;28;20147;-83
2022/12/26 19:22:14;;;;;;;54.97;19.43;;;6.50;99.90;;;4.34;100.00;100411.00;10485544;28;20068;-83
2022/12/26 19:27:18;;;;;;;77.37;19.50;;;6.60;99.90;;;4.33;100.00;100404.91;10487695;28;20064;-83
2022/12/26 19:32:21;;;;;;;89.53;20.47;;;6.60;99.90;;;4.30;100.00;100398.06;10473727;28;20065;-82
2022/12/26 19:37:24;;;;;;;90.50;21.07;;;6.60;99.90;;;4.28;100.00;100417.56;10482079;28;20061;-82
2022/12/26 19:42:27;;;;;;;80.37;22.07;;;6.50;99.90;;;4.21;100.00;100408.50;10498547;28;20057;-82
2022/12/26 19:47:30;;;;;;;77.03;19.50;;;6.50;99.90;;;4.17;100.00;100420.22;10522332;28;20091;-83
2022/12/26 19:52:35;;;;;;;63.07;18.40;;;6.40;99.90;;;4.16;100.00;100419.38;10520617;28;20059;-83
2022/12/26 19:57:38;;;;;;;46.47;17.03;;;6.40;99.90;;;4.15;100.00;100448.44;10532883;28;20147;-82
2022/12/26 20:02:41;;;;;;;49.40;19.17;;;6.40;99.90;;;4.10;100.00;100450.59;10544843;28;20060;-83
2022/12/26 20:07:44;;;;;;;55.90;18.13;;;6.30;99.90;;;4.07;100.00;100450.81;10532486;28;20087;-83
2022/12/26 20:12:48;;;;;;;78.33;30.60;;;6.30;99.90;;;4.07;100.00;100438.50;10562484;28;20056;-83
2022/12/26 20:17:51;;;;;;;47.57;20.03;;;6.30;99.90;;;4.06;100.00;100433.38;10531211;28;20427;-82
2022/12/26 20:22:55;;;;;;;50.27;19.13;;;6.30;99.90;;;4.10;100.00;100443.53;10521935;28;20060;-83
2022/12/26 20:27:57;;;;;;;32.13;14.67;;;6.40;99.90;;;4.13;100.00;100452.97;10535270;28;20087;-82
2022/12/26 20:33:00;;;;;;;41.00;16.83;;;6.40;99.90;;;4.18;100.00;100432.41;10537828;28;20182;-82
2022/12/26 20:38:04;;;;;;;41.80;18.13;;;6.40;99.90;;;4.21;100.00;100419.03;10525011;28;20389;-82
2022/12/26 20:43:07;;;;;;;46.40;19.10;;;6.50;99.90;;;4.22;100.00;100423.31;10536956;28;20063;-84
2022/12/26 20:48:10;;;;;;;40.63;18.87;;;6.50;99.90;;;4.24;100.00;100414.34;10517554;28;20521;-82
2022/12/26 20:53:13;;;;;;;49.67;19.67;;;6.50;99.90;;;4.29;100.00;100408.72;10526274;27;20068;-83
2022/12/26 20:58:16;;;;;;;46.53;16.77;;;6.60;99.90;;;4.35;100.00;100407.41;10534122;28;20064;-83
2022/12/26 21:03:27;;;;;;;49.60;19.17;;;6.60;99.90;;;4.36;100.00;100416.97;10543164;28;20060;-82
2022/12/26 21:08:31;;;;;;;40.87;14.63;;;6.70;99.90;;;4.37;100.00;100427.34;10537178;28;20147;-83
2022/12/26 21:13:36;;;;;;;52.00;16.87;;;6.70;99.90;;;4.39;100.00;100440.41;10522303;28;20068;-83
2022/12/26 21:18:39;;;;;;;53.50;16.67;;;6.70;99.90;;;4.38;100.00;100455.38;10543320;28;20064;-82
2022/12/26 21:23:43;;;;;;;60.07;17.40;;;6.60;99.90;;;4.43;100.00;100440.03;10548395;28;20060;-82
2022/12/26 21:28:46;;;;;;;64.97;19.90;;;6.60;99.90;;;4.46;100.00;100436.31;10550734;28;20060;-82
2022/12/26 21:33:49;;;;;;;64.83;19.27;;;6.70;99.90;;;4.51;100.00;100427.09;10556460;28;20060;-82
2022/12/26 21:38:52;;;;;;;51.60;15.33;;;6.80;99.90;;;4.54;100.00;100429.47;10532382;28;20061;-82
2022/12/26 21:43:55;;;;;;;86.60;18.83;;;6.80;99.90;;;4.61;100.00;100428.97;10522985;28;20053;-82
2022/12/26 21:48:59;;;;;;;48.03;16.60;;;6.90;99.90;;;4.64;100.00;100428.75;10522716;28;20162;-82
2022/12/26 22:04:45;;;;;;;77.27;18.33;;;7.00;99.90;;;4.74;100.00;100413.88;10551929;28;20061;-81
2022/12/26 22:09:48;;;;;;;59.53;15.97;;;7.10;99.90;;;4.74;100.00;100429.69;10535717;28;20067;-85
2022/12/26 22:14:52;;;;;;;53.80;15.63;;;7.00;99.90;;;4.74;100.00;100427.06;10561677;28;20060;-83
2022/12/26 22:19:55;;;;;;;79.20;15.67;;;7.10;99.90;;;4.78;100.00;100415.28;10536694;28;20048;-87
2022/12/26 22:24:58;;;;;;;53.27;14.23;;;7.10;99.90;;;4.77;100.00;100419.72;10514830;28;20072;-84
2022/12/26 22:30:03;;;;;;;54.77;14.13;;;7.10;99.90;;;4.77;100.00;100403.09;10539118;28;20057;-81
2022/12/26 22:35:07;;;;;;;49.70;13.13;;;7.10;99.90;;;4.80;100.00;100397.59;10508815;28;20057;-82
2022/12/26 22:40:18;;;;;;;49.87;14.17;;;7.10;99.90;;;4.79;100.00;100391.44;10524488;28;20512;-84
2022/12/26 22:45:21;;;;;;;49.97;13.60;;;7.10;99.90;;;4.81;100.00;100409.78;10538069;28;20119;-82
2022/12/26 22:50:24;;;;;;;64.20;13.43;;;7.10;99.90;;;4.82;100.00;100412.28;10469427;28;21132;-84
2022/12/26 22:55:27;;;;;;;43.00;11.93;;;7.10;99.90;;;4.83;100.00;100413.13;10487887;28;20068;-84
2022/12/26 23:00:30;;;;;;;71.93;14.53;;;7.10;99.90;;;4.82;100.00;100441.25;10503395;28;20140;-84
2022/12/26 23:05:33;;;;;;;102.37;18.13;;;7.10;99.90;;;4.83;100.00;100442.06;10463624;28;20063;-85
2022/12/26 23:10:38;;;;;;;95.03;16.93;;;7.10;99.90;;;4.83;100.00;100439.44;10477529;28;20061;-85
2022/12/26 23:16:12;;;;;;;68.10;16.57;;;7.10;99.90;;;4.81;100.00;100452.75;10504535;28;20057;-85
2022/12/26 23:21:41;;;;;;;63.03;14.90;;;7.10;99.90;;;4.79;100.00;100440.66;10514026;28;20796;-84
2022/12/26 23:26:49;;;;;;;76.10;16.07;;;7.10;99.90;;;4.79;100.00;100459.06;10470335;28;20069;-83
2022/12/26 23:31:51;;;;;;;100.80;18.90;;;7.10;99.90;;;4.74;100.00;100451.56;10486368;28;20057;-84
2022/12/26 23:36:55;;;;;;;64.40;15.20;;;7.10;99.90;;;4.80;100.00;100455.50;10475090;28;20184;-83